Peletier, NC

12:01 PM EDT on October 22, 2014 (GMT -0400)
Marsh Harbor | Change Station
CLOSE
Current Station
Personal Weather Station
Location: Cedar Point, NC
Elevation: 3 m
Nearby Weather Stations

Elev 3 m 34.69 °N, 77.08 °W | Updated 5 seconds ago

Partly Cloudy
Partly Cloudy
16.9 °C
Feels Like 16.9 °C
N
8.0
Wind Variable Wind from NNW
Gusts 8.0 km/h

Today
High -- | Low -- °C
--% Chance of Precip.
Yesterday
High -- | Low -- °C
Precip. -- mm
7:19 AM 6:25 PM
Waning Crescent, 2% visible
Pressure 1014 hPa
Visibility 16.1 kilometers
Clouds Scattered Clouds 1524 m
Dew Point 10 °C
Humidity 64%
Rainfall 0 mm
Snow Depth Not available.
UV 5 out of 12
Pollen 3.40 out of 12
Air Quality Not available.
Flu Activity Sporadic
METAR KNJM 221557Z COR 35009G17KT 10SM SCT050 17/08 A2993 RMK SLP139 T01720078

More Conditions Fewer Conditions

Pressure 1014 hPa
Visibility 16.1 kilometers
Clouds Scattered Clouds 1524 m
Dew Point 10 °C
Humidity 64%
Rainfall 0 mm
Snow Depth Not available.
UV 5 out of 12
Pollen 3.40 out of 12
Air Quality Not available.
Flu Activity Sporadic
METAR KNJM 221557Z COR 35009G17KT 10SM SCT050 17/08 A2993 RMK SLP139 T01720078

More Conditions Fewer Conditions

10-Day Weather Forecast

Almanac

Astronomy

Oct. 22, 2014 Rise Set
Actual Time 7:19 AM EDT 6:25 PM EDT
Civil Twilight 6:54 AM EDT 6:50 PM EDT
Nautical Twilight 6:24 AM EDT 7:20 PM EDT
Astronomical Twilight 5:55 AM EDT 7:49 PM EDT
Moon 6:02 AM EDT 5:48 PM EDT
Length of Visible Light 11h 56m
Length of Day
11h 05m
Tomorrow will be 2m 1s shorter.
Waning Crescent, 2% of the Moon is Illuminated
Today
Waning Crescent
Oct 23
New
Oct 30
First Quarter
Nov 6
Full
Nov 14
Last Quarter

Today's Extremes

State Highs State Lows

Community

WunderPhotos

Upload Photos

1,763,956 photos uploaded!

Nearby

Snow Depth

Station Depth Elevation
No new snow has been reported.

Earthquake Activity

City Distance Mag. Time & Date
No recent earthquake activity has been reported nearby.
Minimum magnitude displayed is 2.5.

Coastal Water Temperatures

Place Temperature
Beaufort, NC 20.6 °C
Johnny Mercer Pier, Wrightsville Beach, NC 23.3 °C
Hatteras, NC 20.6 °C
Oregon Inlet Marina, NC 20.0 °C

Nearby Weather Stations